createdAt,value
2018-12-06T00:01:58.354Z,31.20
2018-12-06T00:04:27.402Z,30.20
2018-12-06T00:06:55.675Z,32.57
2018-12-06T00:09:23.856Z,32.07
2018-12-06T00:11:52.040Z,27.10
2018-12-06T00:14:20.275Z,25.53
2018-12-06T00:16:55.090Z,29.07
2018-12-06T00:19:23.515Z,25.63
2018-12-06T00:21:51.760Z,26.10
2018-12-06T00:24:20.108Z,28.70
2018-12-06T00:26:49.224Z,32.10
2018-12-06T00:29:17.511Z,25.60
2018-12-06T00:31:45.739Z,34.63
2018-12-06T00:34:13.994Z,32.53
2018-12-06T00:36:42.278Z,35.30
2018-12-06T00:39:10.510Z,34.37
2018-12-06T00:41:38.687Z,35.10
2018-12-06T00:44:06.925Z,33.63
2018-12-06T00:46:35.162Z,33.00
2018-12-06T00:49:06.715Z,32.00
2018-12-06T00:51:34.909Z,34.23
2018-12-06T00:54:05.991Z,36.50
2018-12-06T00:56:34.199Z,34.23
2018-12-06T00:59:06.127Z,37.40
2018-12-06T01:01:34.416Z,33.87
2018-12-06T01:04:05.254Z,37.50
2018-12-06T01:06:33.507Z,38.67
2018-12-06T01:09:04.695Z,37.40
2018-12-06T01:11:32.976Z,33.50
2018-12-06T01:14:04.891Z,32.90
2018-12-06T01:16:34.006Z,35.90
2018-12-06T01:19:04.397Z,34.87
2018-12-06T01:21:32.738Z,35.57
2018-12-06T01:24:02.901Z,32.77
2018-12-06T01:26:31.103Z,33.20
2018-12-06T01:28:59.303Z,28.87
2018-12-06T01:31:27.467Z,36.17
2018-12-06T01:33:55.692Z,35.97
2018-12-06T01:36:23.903Z,27.10
2018-12-06T01:38:53.144Z,26.70
2018-12-06T01:42:00.387Z,31.17
2018-12-06T01:44:28.628Z,30.00
2018-12-06T01:46:56.851Z,27.73
2018-12-06T01:49:25.280Z,24.93
2018-12-06T01:51:53.483Z,25.20
2018-12-06T01:54:21.657Z,23.87
2018-12-06T01:56:49.878Z,21.40
2018-12-06T01:59:18.175Z,26.13
2018-12-06T02:01:46.370Z,23.23
2018-12-06T02:04:14.640Z,20.40
2018-12-06T02:06:43.143Z,17.63
2018-12-06T02:09:11.312Z,23.67
2018-12-06T02:11:40.164Z,22.10
2018-12-06T02:14:08.696Z,23.27
2018-12-06T02:16:36.859Z,34.20
2018-12-06T02:19:06.818Z,22.30
2018-12-06T02:21:35.029Z,23.23
2018-12-06T02:24:04.193Z,20.37
2018-12-06T02:26:32.366Z,25.53
2018-12-06T02:29:00.542Z,18.93
2018-12-06T02:31:28.802Z,20.50
2018-12-06T02:33:57.073Z,22.63
2018-12-06T02:36:25.340Z,21.50
2018-12-06T02:38:53.643Z,18.87
2018-12-06T02:41:21.888Z,20.13
2018-12-06T02:43:50.051Z,19.20
2018-12-06T02:46:21.503Z,23.50
2018-12-06T02:48:49.754Z,18.47
2018-12-06T02:51:17.946Z,14.73
2018-12-06T02:53:46.263Z,15.00
2018-12-06T02:56:14.622Z,13.90
2018-12-06T02:58:42.805Z,15.77
2018-12-06T03:01:11.047Z,15.00
2018-12-06T03:03:39.482Z,13.60
2018-12-06T03:06:08.236Z,14.87
2018-12-06T03:08:36.675Z,13.63
2018-12-06T03:11:04.984Z,13.93
2018-12-06T03:13:33.328Z,16.93
2018-12-06T03:16:03.571Z,15.20
2018-12-06T03:18:33.579Z,14.87
2018-12-06T03:21:02.975Z,15.30
2018-12-06T03:23:31.144Z,21.70
2018-12-06T03:25:59.679Z,16.93
2018-12-06T03:28:27.939Z,16.67
2018-12-06T03:30:56.225Z,17.70
2018-12-06T03:33:24.484Z,18.67
2018-12-06T03:35:52.725Z,15.40
2018-12-06T03:38:20.994Z,19.57
2018-12-06T03:40:49.804Z,13.97
2018-12-06T03:43:18.014Z,17.27
2018-12-06T03:45:46.243Z,15.17
2018-12-06T03:48:14.744Z,19.77
2018-12-06T03:50:43.024Z,14.67
2018-12-06T03:53:11.252Z,16.47
2018-12-06T03:55:39.494Z,15.67
2018-12-06T03:58:07.679Z,15.60
2018-12-06T04:00:35.976Z,16.27
2018-12-06T04:03:05.028Z,16.73
2018-12-06T04:05:33.492Z,14.80
2018-12-06T04:08:02.803Z,11.57
2018-12-06T04:10:31.147Z,17.97
2018-12-06T04:12:59.391Z,16.50
2018-12-06T04:15:28.003Z,15.77
2018-12-06T04:17:56.298Z,18.40
2018-12-06T04:20:26.465Z,17.33
2018-12-06T04:22:54.843Z,13.87
2018-12-06T04:25:23.159Z,16.90
2018-12-06T04:27:52.379Z,16.60
2018-12-06T04:30:20.583Z,15.47
2018-12-06T04:32:48.837Z,17.10
2018-12-06T04:35:17.049Z,17.60
2018-12-06T04:37:45.291Z,17.00
2018-12-06T04:40:13.519Z,14.90
2018-12-06T04:42:41.722Z,15.20
2018-12-06T04:45:11.162Z,14.13
2018-12-06T04:47:39.857Z,13.10
2018-12-06T04:50:08.278Z,15.10
2018-12-06T04:52:36.490Z,14.63
2018-12-06T04:55:09.576Z,12.90
2018-12-06T04:57:37.823Z,17.80
2018-12-06T05:00:06.872Z,10.90
2018-12-06T05:02:35.201Z,12.40
2018-12-06T05:05:04.704Z,13.43
2018-12-06T05:07:33.287Z,13.47
2018-12-06T05:10:03.777Z,17.93
2018-12-06T05:12:31.986Z,11.30
2018-12-06T05:15:00.107Z,12.77
2018-12-06T05:17:28.933Z,11.50
2018-12-06T05:19:57.645Z,9.63
2018-12-06T05:22:25.815Z,12.27
2018-12-06T05:24:54.003Z,13.30
2018-12-06T05:27:22.741Z,15.57
2018-12-06T05:29:51.671Z,11.57
2018-12-06T05:32:19.856Z,11.73
2018-12-06T05:34:48.323Z,13.97
2018-12-06T05:37:16.578Z,12.00
2018-12-06T05:39:44.744Z,14.17
2018-12-06T05:42:13.154Z,13.10
2018-12-06T05:44:42.626Z,11.30
2018-12-06T05:47:10.825Z,10.67
2018-12-06T05:49:39.311Z,10.03
2018-12-06T05:52:07.591Z,10.27
2018-12-06T05:54:36.435Z,9.10
2018-12-06T05:57:04.627Z,12.10
2018-12-06T05:59:32.903Z,8.43
2018-12-06T06:02:03.873Z,9.07
2018-12-06T06:04:32.051Z,10.53
2018-12-06T06:07:04.463Z,8.40
2018-12-06T06:09:32.678Z,9.10
2018-12-06T06:12:04.748Z,10.20
2018-12-06T06:14:32.855Z,7.07
2018-12-06T06:17:02.948Z,7.70
2018-12-06T06:19:31.110Z,7.57
2018-12-06T06:21:59.311Z,7.97
2018-12-06T06:24:27.590Z,11.30
2018-12-06T06:26:55.811Z,6.83
2018-12-06T06:29:30.792Z,6.80
2018-12-06T06:31:58.923Z,7.97
2018-12-06T06:34:27.285Z,7.27
2018-12-06T06:36:55.484Z,7.80
2018-12-06T06:39:23.751Z,8.73
2018-12-06T06:41:52.107Z,10.03
2018-12-06T06:44:20.315Z,8.53
2018-12-06T06:46:48.591Z,7.63
2018-12-06T06:49:16.827Z,8.93
2018-12-06T06:51:45.113Z,10.20
2018-12-06T06:54:13.374Z,11.77
2018-12-06T06:56:41.500Z,16.47
2018-12-06T06:59:09.715Z,15.77
2018-12-06T07:01:37.996Z,14.97
2018-12-06T07:04:06.212Z,19.07
2018-12-06T07:06:34.479Z,14.87
2018-12-06T07:09:03.215Z,16.07
2018-12-06T07:11:31.403Z,13.77
2018-12-06T07:13:59.623Z,19.83
2018-12-06T07:16:28.094Z,14.50
2018-12-06T07:18:56.662Z,15.90
2018-12-06T07:21:24.855Z,15.27
2018-12-06T07:23:53.364Z,15.23
2018-12-06T07:26:21.655Z,11.70
2018-12-06T07:28:49.883Z,10.93
2018-12-06T07:31:18.067Z,10.63
2018-12-06T07:33:46.203Z,8.37
2018-12-06T07:36:14.335Z,7.60
2018-12-06T07:38:42.546Z,8.53
2018-12-06T07:41:10.759Z,8.37
2018-12-06T07:43:39.919Z,10.03
2018-12-06T07:46:11.474Z,9.10
2018-12-06T07:48:39.692Z,8.30
2018-12-06T07:51:07.947Z,8.70
2018-12-06T07:53:37.471Z,11.87
2018-12-06T07:56:05.743Z,10.50
2018-12-06T07:58:34.099Z,10.10
2018-12-06T08:01:06.007Z,10.23
2018-12-06T08:03:40.016Z,8.63
2018-12-06T08:06:11.908Z,8.80
2018-12-06T08:08:40.103Z,7.40
2018-12-06T08:11:08.625Z,9.13
2018-12-06T08:13:36.947Z,9.77
2018-12-06T08:16:05.794Z,10.23
2018-12-06T08:18:34.072Z,5.50
2018-12-06T08:21:06.822Z,5.20
2018-12-06T08:23:35.904Z,6.87
2018-12-06T08:26:04.943Z,5.77
2018-12-06T08:28:33.221Z,6.53
2018-12-06T08:31:05.537Z,5.80
2018-12-06T08:33:35.939Z,9.43
2018-12-06T08:36:07.741Z,5.70
2018-12-06T08:38:35.971Z,5.20
2018-12-06T08:41:05.947Z,4.10
2018-12-06T08:43:36.170Z,4.10
2018-12-06T08:46:04.999Z,5.07
2018-12-06T08:48:34.095Z,4.80
2018-12-06T08:51:06.354Z,5.20
2018-12-06T08:53:38.088Z,5.93
2018-12-06T08:56:07.670Z,5.00
2018-12-06T08:58:36.538Z,5.93
2018-12-06T09:01:05.966Z,4.50
2018-12-06T09:03:34.133Z,5.13
2018-12-06T09:06:06.925Z,5.03
2018-12-06T09:08:37.183Z,4.87
2018-12-06T09:11:07.891Z,5.03
2018-12-06T09:13:36.230Z,5.63
2018-12-06T09:16:06.723Z,6.17
2018-12-06T09:18:35.027Z,8.10
2018-12-06T09:21:07.514Z,4.73
2018-12-06T09:23:35.704Z,6.33
2018-12-06T09:26:05.802Z,5.13
2018-12-06T09:28:36.195Z,5.03
2018-12-06T09:31:09.081Z,4.97
2018-12-06T09:33:49.357Z,6.37
2018-12-06T09:36:17.608Z,6.00
2018-12-06T09:38:45.831Z,5.40
2018-12-06T09:41:14.094Z,5.20
2018-12-06T09:43:42.989Z,5.10
2018-12-06T09:46:11.254Z,4.27
2018-12-06T09:48:39.448Z,4.10
2018-12-06T09:51:07.768Z,4.80
2018-12-06T09:53:46.367Z,4.20
2018-12-06T09:56:14.644Z,4.80
2018-12-06T09:58:42.863Z,4.33
2018-12-06T10:01:16.526Z,4.13
2018-12-06T10:03:44.663Z,5.70
2018-12-06T10:06:13.675Z,4.63
2018-12-06T10:08:46.230Z,5.70
2018-12-06T10:11:19.595Z,6.80
2018-12-06T10:13:51.856Z,6.13
2018-12-06T10:16:20.139Z,6.27
2018-12-06T10:18:48.506Z,9.43
2018-12-06T10:21:16.736Z,6.13
2018-12-06T10:23:44.927Z,6.50
2018-12-06T10:26:13.296Z,7.93
2018-12-06T10:28:41.848Z,6.33
2018-12-06T10:31:10.226Z,5.23
2018-12-06T10:33:39.288Z,6.70
2018-12-06T10:36:07.531Z,5.73
2018-12-06T10:38:44.611Z,5.90
2018-12-06T10:41:12.778Z,6.07
2018-12-06T10:43:41.057Z,5.27
2018-12-06T10:46:09.312Z,5.87
2018-12-06T10:48:42.740Z,7.80
2018-12-06T10:51:22.424Z,6.07
2018-12-06T10:53:51.989Z,4.10
2018-12-06T10:56:20.226Z,6.50
2018-12-06T10:58:48.371Z,4.13
2018-12-06T11:01:26.311Z,3.97
2018-12-06T11:04:00.136Z,4.30
2018-12-06T11:06:28.575Z,4.47
2018-12-06T11:08:56.788Z,3.63
2018-12-06T11:11:26.464Z,3.67
2018-12-06T11:13:58.703Z,3.67
2018-12-06T11:16:28.029Z,3.80
2018-12-06T11:18:56.384Z,4.73
2018-12-06T11:21:25.036Z,3.73
2018-12-06T11:23:53.225Z,5.60
2018-12-06T11:26:22.122Z,4.63
2018-12-06T11:28:52.306Z,5.37
2018-12-06T11:31:25.111Z,4.60
2018-12-06T11:33:53.516Z,4.17
2018-12-06T11:36:21.867Z,5.00
2018-12-06T11:38:54.487Z,3.83
2018-12-06T11:41:23.611Z,4.83
2018-12-06T11:43:52.252Z,4.70
2018-12-06T11:46:23.251Z,4.27
2018-12-06T11:48:57.860Z,4.37
2018-12-06T11:51:26.070Z,5.00
2018-12-06T11:53:55.754Z,4.40
2018-12-06T11:56:23.944Z,3.90
2018-12-06T11:58:52.187Z,6.27
2018-12-06T12:01:21.456Z,5.40
2018-12-06T12:03:49.647Z,4.17
2018-12-06T12:06:18.850Z,4.20
2018-12-06T12:08:47.025Z,6.07
2018-12-06T12:11:15.264Z,3.90
2018-12-06T12:13:43.427Z,5.10
2018-12-06T12:16:12.613Z,4.20
2018-12-06T12:18:41.723Z,3.70
2018-12-06T12:21:10.782Z,5.33
2018-12-06T12:23:38.938Z,4.90
2018-12-06T12:26:07.516Z,3.87
2018-12-06T12:28:35.796Z,3.70
2018-12-06T12:31:05.751Z,4.57
2018-12-06T12:33:33.907Z,3.67
2018-12-06T12:36:05.555Z,4.90
2018-12-06T12:38:34.691Z,5.70
2018-12-06T12:41:03.897Z,4.20
2018-12-06T12:43:32.070Z,5.30
2018-12-06T12:46:00.322Z,4.80
2018-12-06T12:48:33.839Z,3.63
2018-12-06T12:51:06.551Z,5.13
2018-12-06T12:53:35.153Z,7.10
2018-12-06T12:56:06.528Z,3.73
2018-12-06T12:58:35.074Z,3.97
2018-12-06T13:01:04.852Z,4.10
2018-12-06T13:03:37.640Z,5.23
2018-12-06T13:06:15.092Z,4.43
2018-12-06T13:08:43.409Z,4.73
2018-12-06T13:11:12.490Z,7.93
2018-12-06T13:13:40.685Z,4.03
2018-12-06T13:16:08.934Z,4.37
2018-12-06T13:18:37.227Z,3.70
2018-12-06T13:21:07.467Z,3.40
2018-12-06T13:23:36.601Z,5.10
2018-12-06T13:26:06.141Z,7.57
2018-12-06T13:28:34.482Z,2.90
2018-12-06T13:31:07.111Z,4.00
2018-12-06T13:33:37.203Z,3.13
2018-12-06T13:36:08.354Z,3.70
2018-12-06T13:38:37.527Z,4.50
2018-12-06T13:41:05.844Z,4.90
2018-12-06T13:43:34.086Z,3.00
2018-12-06T13:46:05.933Z,4.00
2018-12-06T13:48:34.275Z,4.10
2018-12-06T13:51:06.564Z,3.57
2018-12-06T13:53:34.803Z,3.30
2018-12-06T13:56:12.243Z,3.10
2018-12-06T13:58:43.887Z,5.57
2018-12-06T14:01:12.440Z,3.23
2018-12-06T14:03:41.304Z,5.77
2018-12-06T14:06:09.682Z,4.80
2018-12-06T14:08:39.542Z,7.63
2018-12-06T14:11:07.703Z,6.57
2018-12-06T14:13:36.582Z,6.00
2018-12-06T14:16:10.605Z,7.00
2018-12-06T14:18:38.595Z,8.30
2018-12-06T14:21:09.255Z,6.33
2018-12-06T14:23:38.275Z,6.90
2018-12-06T14:26:06.977Z,2.80
2018-12-06T14:28:39.863Z,3.93
2018-12-06T14:31:08.175Z,2.83
2018-12-06T14:33:36.429Z,5.70
2018-12-06T14:36:05.115Z,6.93
2018-12-06T14:38:33.787Z,4.27
2018-12-06T14:41:05.213Z,6.27
2018-12-06T14:43:33.649Z,6.60
2018-12-06T14:46:03.767Z,9.33
2018-12-06T14:48:33.596Z,9.63
2018-12-06T14:51:04.577Z,5.53
2018-12-06T14:53:33.365Z,7.87
2018-12-06T14:56:03.923Z,8.73
2018-12-06T14:58:32.064Z,5.60
2018-12-06T15:01:00.499Z,5.40
2018-12-06T15:03:28.680Z,4.63
2018-12-06T15:05:56.892Z,3.77
2018-12-06T15:08:26.357Z,6.33
2018-12-06T15:10:54.563Z,3.80
2018-12-06T15:13:24.507Z,4.20
2018-12-06T15:15:53.196Z,5.50
2018-12-06T15:18:21.454Z,4.77
2018-12-06T15:20:49.624Z,5.83
2018-12-06T15:23:17.862Z,4.57
2018-12-06T15:25:46.148Z,4.33
2018-12-06T15:28:14.391Z,10.40
2018-12-06T15:30:47.822Z,3.50
2018-12-06T15:33:16.039Z,4.37
2018-12-06T15:35:46.025Z,4.73
2018-12-06T15:38:15.252Z,3.77
2018-12-06T15:40:43.650Z,5.53
2018-12-06T15:43:11.808Z,5.17
2018-12-06T15:45:45.855Z,3.53
2018-12-06T15:48:14.359Z,6.30
2018-12-06T15:50:42.671Z,6.23
2018-12-06T15:53:10.859Z,4.10
2018-12-06T15:55:39.143Z,6.27
2018-12-06T15:58:07.427Z,7.97
2018-12-06T16:00:36.095Z,3.43
2018-12-06T16:03:05.488Z,6.43
2018-12-06T16:05:33.811Z,5.80
2018-12-06T16:08:06.200Z,11.07
2018-12-06T16:10:36.056Z,30.90
2018-12-06T16:13:06.711Z,6.47
2018-12-06T16:15:34.944Z,7.80
2018-12-06T16:18:04.915Z,9.13
2018-12-06T16:20:33.136Z,7.60
2018-12-06T16:23:02.138Z,5.37
2018-12-06T16:25:30.744Z,8.90
2018-12-06T16:27:58.955Z,6.03
2018-12-06T16:30:27.233Z,4.90
2018-12-06T16:32:55.463Z,6.83
2018-12-06T16:35:23.635Z,8.63
2018-12-06T16:37:56.047Z,10.20
2018-12-06T16:40:24.287Z,9.07
2018-12-06T16:42:52.443Z,6.70
2018-12-06T16:45:23.433Z,6.10
2018-12-06T16:47:51.631Z,6.00
2018-12-06T16:50:20.163Z,5.87
2018-12-06T16:52:49.303Z,15.40
2018-12-06T16:55:17.427Z,12.90
2018-12-06T16:57:45.688Z,5.10
2018-12-06T17:00:14.841Z,7.80
2018-12-06T17:02:43.150Z,5.43
2018-12-06T17:05:13.438Z,4.90
2018-12-06T17:07:43.421Z,6.17
2018-12-06T17:10:11.675Z,6.03
2018-12-06T17:12:40.922Z,5.60
2018-12-06T17:15:09.519Z,5.97
2018-12-06T17:17:37.786Z,4.30
2018-12-06T17:20:08.257Z,7.73
2018-12-06T17:22:36.735Z,6.63
2018-12-06T17:25:06.891Z,5.73
2018-12-06T17:27:35.073Z,9.10
2018-12-06T17:30:04.679Z,9.73
2018-12-06T17:32:33.632Z,4.33
2018-12-06T17:35:04.720Z,4.43
2018-12-06T17:37:32.856Z,6.60
2018-12-06T17:40:05.031Z,5.67
2018-12-06T17:42:33.233Z,4.83
2018-12-06T17:45:02.059Z,5.47
2018-12-06T17:47:30.355Z,6.17
2018-12-06T17:49:58.559Z,7.90
2018-12-06T17:52:26.713Z,5.20
2018-12-06T17:54:55.060Z,6.67
2018-12-06T17:57:23.263Z,7.47
2018-12-06T17:59:51.839Z,4.37
2018-12-06T18:02:19.979Z,4.83
2018-12-06T18:04:48.232Z,4.10
2018-12-06T18:07:16.584Z,5.53
2018-12-06T18:09:44.923Z,5.80
2018-12-06T18:12:13.211Z,6.27
2018-12-06T18:14:43.329Z,5.03
2018-12-06T18:17:12.103Z,10.30
2018-12-06T18:19:40.723Z,6.20
2018-12-06T18:22:10.016Z,4.30
2018-12-06T18:24:38.394Z,5.47
2018-12-06T18:27:06.671Z,4.90
2018-12-06T18:29:35.716Z,6.80
2018-12-06T18:32:04.906Z,4.33
2018-12-06T18:34:33.080Z,4.97
2018-12-06T18:37:02.759Z,5.17
2018-12-06T18:39:30.982Z,5.87
2018-12-06T18:41:59.254Z,7.37
2018-12-06T18:44:31.099Z,7.47
2018-12-06T18:46:59.347Z,5.17
2018-12-06T18:49:27.807Z,7.70
2018-12-06T18:51:56.057Z,7.30
2018-12-06T18:54:24.252Z,7.67
2018-12-06T18:56:52.615Z,5.37
2018-12-06T18:59:20.810Z,5.70
2018-12-06T19:01:49.218Z,6.53
2018-12-06T19:04:17.899Z,4.77
2018-12-06T19:06:46.779Z,4.60
2018-12-06T19:09:16.810Z,4.50
2018-12-06T19:11:48.455Z,4.97
2018-12-06T19:14:21.870Z,5.63
2018-12-06T19:16:46.859Z,3.50
2018-12-06T19:19:15.994Z,4.50
2018-12-06T19:21:44.276Z,3.80
2018-12-06T19:24:13.082Z,3.87
2018-12-06T19:26:41.744Z,3.07
2018-12-06T19:29:09.962Z,4.77
2018-12-06T19:31:38.638Z,6.00
2018-12-06T19:34:07.286Z,3.80
2018-12-06T19:36:36.410Z,4.43
2018-12-06T19:39:07.981Z,4.17
2018-12-06T19:41:37.242Z,5.40
2018-12-06T19:44:05.842Z,4.67
2018-12-06T19:46:34.027Z,4.93
2018-12-06T19:49:06.172Z,6.50
2018-12-06T19:51:34.363Z,4.87
2018-12-06T19:54:06.032Z,4.93
2018-12-06T19:56:34.607Z,4.57
2018-12-06T19:59:05.913Z,5.37
2018-12-06T20:01:35.524Z,4.80
2018-12-06T20:04:07.456Z,4.77
2018-12-06T20:06:35.703Z,4.97
2018-12-06T20:09:09.435Z,5.40
2018-12-06T20:11:37.807Z,4.73
2018-12-06T20:14:06.932Z,5.60
2018-12-06T20:16:35.203Z,6.83
2018-12-06T20:19:05.273Z,7.90
2018-12-06T20:21:33.436Z,5.43
2018-12-06T20:24:05.211Z,7.30
2018-12-06T20:26:33.503Z,3.87
2018-12-06T20:29:07.211Z,4.33
2018-12-06T20:31:35.481Z,5.77
2018-12-06T20:34:10.299Z,5.37
2018-12-06T20:36:38.491Z,4.03
2018-12-06T20:39:08.949Z,6.40
2018-12-06T20:41:37.239Z,4.77
2018-12-06T20:44:06.387Z,6.20
2018-12-06T20:46:34.566Z,6.70
2018-12-06T20:49:06.115Z,7.03
2018-12-06T20:51:34.379Z,5.70
2018-12-06T20:54:07.099Z,4.87
2018-12-06T20:56:35.355Z,5.30
2018-12-06T20:59:03.978Z,7.13
2018-12-06T21:01:32.159Z,5.77
2018-12-06T21:04:00.391Z,6.40
2018-12-06T21:06:28.546Z,5.83
2018-12-06T21:08:56.825Z,6.23
2018-12-06T21:11:25.658Z,6.80
2018-12-06T21:13:53.934Z,8.40
2018-12-06T21:16:22.240Z,7.40
2018-12-06T21:18:51.090Z,7.27
2018-12-06T21:21:19.298Z,5.97
2018-12-06T21:23:47.503Z,7.60
2018-12-06T21:26:15.770Z,8.07
2018-12-06T21:28:44.459Z,8.90
2018-12-06T21:31:12.670Z,6.07
2018-12-06T21:33:40.880Z,5.50
2018-12-06T21:36:09.083Z,6.20
2018-12-06T21:38:37.569Z,6.27
2018-12-06T21:41:05.749Z,5.40
2018-12-06T21:43:34.004Z,5.10
2018-12-06T21:46:04.567Z,6.90
2018-12-06T21:48:32.723Z,4.60
2018-12-06T21:51:04.768Z,4.40
2018-12-06T21:53:33.065Z,4.63
2018-12-06T21:56:05.431Z,4.80
2018-12-06T21:58:33.943Z,3.90
2018-12-06T22:01:03.027Z,4.20
2018-12-06T22:03:31.197Z,9.37
2018-12-06T22:05:59.458Z,4.50
2018-12-06T22:08:27.719Z,4.17
2018-12-06T22:10:55.884Z,5.47
2018-12-06T22:13:24.059Z,5.70
2018-12-06T22:15:52.249Z,5.40
2018-12-06T22:18:21.396Z,4.30
2018-12-06T22:20:49.737Z,4.30
2018-12-06T22:23:18.003Z,4.67
2018-12-06T22:25:46.170Z,3.83
2018-12-06T22:28:14.335Z,4.27
2018-12-06T22:30:42.530Z,5.47
2018-12-06T22:33:11.701Z,4.63
2018-12-06T22:35:39.895Z,4.50
2018-12-06T22:38:08.587Z,4.23
2018-12-06T22:40:36.856Z,4.60
2018-12-06T22:43:07.749Z,4.70
2018-12-06T22:46:07.458Z,3.27
2018-12-06T22:48:35.643Z,3.50
2018-12-06T22:51:06.664Z,4.20
2018-12-06T22:53:35.019Z,5.30
2018-12-06T22:56:07.738Z,3.07
2018-12-06T22:58:36.672Z,3.10
2018-12-06T23:01:09.490Z,3.40
2018-12-06T23:03:37.813Z,2.50
2018-12-06T23:06:06.087Z,2.60
2018-12-06T23:08:34.385Z,3.60
2018-12-06T23:11:03.459Z,2.77
2018-12-06T23:13:31.680Z,3.00
2018-12-06T23:15:59.959Z,2.60
2018-12-06T23:18:28.148Z,4.57
2018-12-06T23:20:56.384Z,3.33
2018-12-06T23:23:24.663Z,2.40
2018-12-06T23:25:53.130Z,2.33
2018-12-06T23:28:21.343Z,2.80
2018-12-06T23:30:49.570Z,2.10
2018-12-06T23:33:17.717Z,2.40
2018-12-06T23:35:46.001Z,2.27
2018-12-06T23:38:14.400Z,2.80
2018-12-06T23:40:42.802Z,2.50
2018-12-06T23:43:11.991Z,2.57
2018-12-06T23:45:40.207Z,2.40
2018-12-06T23:48:09.492Z,2.50
2018-12-06T23:50:37.741Z,2.43
2018-12-06T23:53:06.020Z,1.80
2018-12-06T23:55:34.273Z,3.60
2018-12-06T23:58:03.516Z,1.80
